createdAt,value
2019-04-25T00:00:07.042Z,12.17
2019-04-25T00:02:38.265Z,12.19
2019-04-25T00:05:06.722Z,12.23
2019-04-25T00:07:32.833Z,12.35
2019-04-25T00:09:58.858Z,12.04
2019-04-25T00:12:25.597Z,12.28
2019-04-25T00:14:51.654Z,12.32
2019-04-25T00:17:17.816Z,11.95
2019-04-25T00:19:44.335Z,12.05
2019-04-25T00:22:12.160Z,12.05
2019-04-25T00:24:55.037Z,12.17
2019-04-25T00:27:21.621Z,12.22
2019-04-25T00:29:48.815Z,12.01
2019-04-25T00:32:14.704Z,12.09
2019-04-25T00:34:43.161Z,11.91
2019-04-25T00:37:08.832Z,11.97
2019-04-25T00:39:34.682Z,11.99
2019-04-25T00:42:02.180Z,12.11
2019-04-25T00:44:28.292Z,11.99
2019-04-25T00:46:56.728Z,11.80
2019-04-25T00:49:23.616Z,12.00
2019-04-25T00:51:50.650Z,11.94
2019-04-25T00:54:17.367Z,11.65
2019-04-25T00:56:45.805Z,11.93
2019-04-25T00:59:13.995Z,11.82
2019-04-25T01:01:48.050Z,11.93
2019-04-25T01:04:14.545Z,11.82
2019-04-25T01:06:41.643Z,11.76
2019-04-25T01:09:10.293Z,11.84
2019-04-25T01:11:36.167Z,11.78
2019-04-25T01:14:02.246Z,11.75
2019-04-25T01:16:28.306Z,11.81
2019-04-25T01:18:54.798Z,11.74
2019-04-25T01:21:21.422Z,11.41
2019-04-25T01:23:49.883Z,11.77
2019-04-25T01:26:15.737Z,11.60
2019-04-25T01:28:41.705Z,11.61
2019-04-25T01:31:09.463Z,11.32
2019-04-25T01:33:35.320Z,11.58
2019-04-25T01:36:18.025Z,11.63
2019-04-25T01:38:56.647Z,11.59
2019-04-25T01:41:24.557Z,11.59
2019-04-25T01:43:58.360Z,11.50
2019-04-25T01:46:24.303Z,11.49
2019-04-25T01:48:50.193Z,11.49
2019-04-25T01:51:15.992Z,11.54
2019-04-25T01:53:42.043Z,11.54
2019-04-25T01:56:08.047Z,11.51
2019-04-25T01:58:33.871Z,11.35
2019-04-25T02:00:59.717Z,11.26
2019-04-25T02:03:27.255Z,11.29
2019-04-25T02:05:54.908Z,11.29
2019-04-25T02:08:21.050Z,11.29
2019-04-25T02:10:48.816Z,11.31
2019-04-25T02:13:16.575Z,11.27
2019-04-25T02:15:43.361Z,11.09
2019-04-25T02:18:09.323Z,11.24
2019-04-25T02:20:35.178Z,11.16
2019-04-25T02:23:02.055Z,11.13
2019-04-25T02:25:28.021Z,11.17
2019-04-25T02:27:55.870Z,11.22
2019-04-25T02:30:25.278Z,11.14
2019-04-25T02:32:50.647Z,10.96
2019-04-25T02:35:16.679Z,11.04
2019-04-25T02:37:44.832Z,11.11
2019-04-25T02:40:11.296Z,11.07
2019-04-25T02:42:37.260Z,11.13
2019-04-25T02:45:10.241Z,11.14
2019-04-25T02:47:38.011Z,10.77
2019-04-25T02:50:24.988Z,10.89
2019-04-25T02:52:55.569Z,10.76
2019-04-25T02:55:30.814Z,10.86
2019-04-25T02:57:48.317Z,10.82
2019-04-25T03:00:25.100Z,10.52
2019-04-25T03:02:51.174Z,10.56
2019-04-25T03:05:17.057Z,10.71
2019-04-25T03:07:44.516Z,10.80
2019-04-25T03:10:10.887Z,10.57
2019-04-25T03:12:37.014Z,10.47
2019-04-25T03:15:07.942Z,10.65
2019-04-25T03:17:34.286Z,10.28
2019-04-25T03:20:14.881Z,10.59
2019-04-25T03:22:40.966Z,10.72
2019-04-25T03:25:11.023Z,10.48
2019-04-25T03:27:34.602Z,10.52
2019-04-25T03:30:01.937Z,10.62
2019-04-25T03:32:28.576Z,10.48
2019-04-25T03:34:54.901Z,10.62
2019-04-25T03:37:20.898Z,10.55
2019-04-25T03:39:46.745Z,10.46
2019-04-25T03:42:14.097Z,10.20
2019-04-25T03:44:40.065Z,10.53
2019-04-25T03:47:07.468Z,10.36
2019-04-25T03:49:33.765Z,10.57
2019-04-25T03:51:59.672Z,10.39
2019-04-25T03:54:25.517Z,10.12
2019-04-25T03:56:54.401Z,10.09
2019-04-25T03:59:19.155Z,10.39
2019-04-25T04:01:45.011Z,10.36
2019-04-25T04:04:11.166Z,10.38
2019-04-25T04:06:37.066Z,10.46
2019-04-25T04:09:05.870Z,10.32
2019-04-25T04:11:33.739Z,10.15
2019-04-25T04:13:59.749Z,10.23
2019-04-25T04:16:27.518Z,10.09
2019-04-25T04:18:54.868Z,10.20
2019-04-25T04:21:28.349Z,10.29
2019-04-25T04:23:59.056Z,10.14
2019-04-25T04:26:24.989Z,10.11
2019-04-25T04:28:50.849Z,10.09
2019-04-25T04:31:16.775Z,10.03
2019-04-25T04:33:43.103Z,10.10
2019-04-25T04:36:09.083Z,9.95
2019-04-25T04:38:34.988Z,9.97
2019-04-25T04:41:00.894Z,9.97
2019-04-25T04:43:26.796Z,10.11
2019-04-25T04:45:54.086Z,10.35
2019-04-25T04:48:20.010Z,9.94
2019-04-25T04:50:45.893Z,10.07
2019-04-25T04:53:11.758Z,10.33
2019-04-25T04:55:37.634Z,10.21
2019-04-25T04:58:04.253Z,10.13
2019-04-25T05:00:30.477Z,9.96
2019-04-25T05:03:01.001Z,10.02
2019-04-25T05:05:34.643Z,10.25
2019-04-25T05:08:05.195Z,10.44
2019-04-25T05:10:31.055Z,10.28
2019-04-25T05:12:56.927Z,10.21
2019-04-25T05:15:24.603Z,10.18
2019-04-25T05:17:50.548Z,10.37
2019-04-25T05:20:18.535Z,10.36
2019-04-25T05:22:44.588Z,10.44
2019-04-25T05:25:10.956Z,10.44
2019-04-25T05:27:50.727Z,10.43
2019-04-25T05:30:08.686Z,10.48
2019-04-25T05:32:34.757Z,10.46
2019-04-25T05:35:00.644Z,10.67
2019-04-25T05:37:26.552Z,10.60
2019-04-25T05:39:53.572Z,10.54
2019-04-25T05:42:38.291Z,10.56
2019-04-25T05:45:05.047Z,10.73
2019-04-25T05:47:30.890Z,10.81
2019-04-25T05:49:56.749Z,10.84
2019-04-25T05:52:24.306Z,10.94
2019-04-25T05:54:50.529Z,10.85
2019-04-25T05:57:16.637Z,10.96
2019-04-25T05:59:43.643Z,11.11
2019-04-25T06:02:09.519Z,11.14
2019-04-25T06:04:35.851Z,11.23
2019-04-25T06:07:01.730Z,11.40
2019-04-25T06:09:38.378Z,11.40
2019-04-25T06:12:09.472Z,11.45
2019-04-25T06:14:35.463Z,11.41
2019-04-25T06:17:03.496Z,11.49
2019-04-25T06:19:37.164Z,11.46
2019-04-25T06:22:04.846Z,11.46
2019-04-25T06:24:34.236Z,11.43
2019-04-25T06:27:11.106Z,11.67
2019-04-25T06:29:36.973Z,11.68
2019-04-25T06:32:07.844Z,11.81
2019-04-25T06:34:33.985Z,11.97
2019-04-25T06:36:58.429Z,11.88
2019-04-25T06:39:25.537Z,12.08
2019-04-25T06:41:52.165Z,12.27
2019-04-25T06:44:34.792Z,12.21
2019-04-25T06:47:03.385Z,12.28
2019-04-25T06:49:31.555Z,12.11
2019-04-25T06:51:59.443Z,11.93
2019-04-25T06:54:27.192Z,11.93
2019-04-25T06:56:53.656Z,11.87
2019-04-25T06:59:19.845Z,11.91
2019-04-25T07:01:45.915Z,11.90
2019-04-25T07:04:13.945Z,11.87
2019-04-25T07:06:40.033Z,11.76
2019-04-25T07:09:08.012Z,11.95
2019-04-25T07:11:34.904Z,11.77
2019-04-25T07:14:01.766Z,11.71
2019-04-25T07:16:27.667Z,11.82
2019-04-25T07:18:53.524Z,12.00
2019-04-25T07:21:19.377Z,12.00
2019-04-25T07:23:46.231Z,12.04
2019-04-25T07:26:14.854Z,12.11
2019-04-25T07:28:45.152Z,12.25
2019-04-25T07:31:25.402Z,11.98
2019-04-25T07:33:53.324Z,12.17
2019-04-25T07:36:19.169Z,12.18
2019-04-25T07:38:45.042Z,12.14
2019-04-25T07:41:10.958Z,12.27
2019-04-25T07:43:36.906Z,12.28
2019-04-25T07:46:03.545Z,12.24
2019-04-25T07:48:30.079Z,12.38
2019-04-25T07:50:56.013Z,12.40
2019-04-25T07:53:23.734Z,12.57
2019-04-25T07:55:49.647Z,12.60
2019-04-25T07:58:15.514Z,12.56
2019-04-25T08:00:41.371Z,12.44
2019-04-25T08:03:07.244Z,12.47
2019-04-25T08:05:35.325Z,12.53
2019-04-25T08:08:00.960Z,12.49
2019-04-25T08:10:30.749Z,12.44
2019-04-25T08:12:56.655Z,12.56
2019-04-25T08:15:28.313Z,12.59
2019-04-25T08:17:59.636Z,12.65
2019-04-25T08:20:26.624Z,12.72
2019-04-25T08:22:58.452Z,12.65
2019-04-25T08:25:21.247Z,12.80
2019-04-25T08:27:47.639Z,12.89
2019-04-25T08:30:14.112Z,13.00
2019-04-25T08:32:40.134Z,13.02
2019-04-25T08:35:05.993Z,13.09
2019-04-25T08:37:31.843Z,13.14
2019-04-25T08:39:57.698Z,13.18
2019-04-25T08:42:24.497Z,13.18
2019-04-25T08:44:50.361Z,13.16
2019-04-25T08:47:16.225Z,13.13
2019-04-25T08:49:45.855Z,13.17
2019-04-25T08:52:13.227Z,13.27
2019-04-25T08:54:45.352Z,13.30
2019-04-25T08:57:10.780Z,13.30
2019-04-25T08:59:52.710Z,13.40
2019-04-25T09:02:29.338Z,13.44
2019-04-25T09:04:57.112Z,13.46
2019-04-25T09:07:23.548Z,13.46
2019-04-25T09:09:49.577Z,13.60
2019-04-25T09:12:15.425Z,13.66
2019-04-25T09:14:41.290Z,13.84
2019-04-25T09:17:07.158Z,13.95
2019-04-25T09:19:35.905Z,14.07
2019-04-25T09:22:00.795Z,14.11
2019-04-25T09:24:26.648Z,14.26
2019-04-25T09:26:54.022Z,14.29
2019-04-25T09:29:20.965Z,14.27
2019-04-25T09:31:46.841Z,14.34
2019-04-25T09:34:13.994Z,14.17
2019-04-25T09:36:39.982Z,14.37
2019-04-25T09:39:09.120Z,14.48
2019-04-25T09:41:35.955Z,14.61
2019-04-25T09:44:04.573Z,14.88
2019-04-25T09:46:34.085Z,15.25
2019-04-25T09:49:10.685Z,15.34
2019-04-25T09:51:39.547Z,15.51
2019-04-25T09:54:23.772Z,15.98
2019-04-25T09:56:53.218Z,15.96
2019-04-25T09:59:27.208Z,15.78
2019-04-25T10:01:49.205Z,15.84
2019-04-25T10:04:15.067Z,16.08
2019-04-25T10:06:40.926Z,16.27
2019-04-25T10:09:08.693Z,16.64
2019-04-25T10:11:34.558Z,16.65
2019-04-25T10:14:16.333Z,16.78
2019-04-25T10:16:43.981Z,16.64
2019-04-25T10:19:10.145Z,16.96
2019-04-25T10:21:37.944Z,16.79
2019-04-25T10:24:03.881Z,16.94
2019-04-25T10:26:29.741Z,17.13
2019-04-25T10:28:55.600Z,17.29
2019-04-25T10:31:21.489Z,17.36
2019-04-25T10:33:47.339Z,16.83
2019-04-25T10:36:14.494Z,16.78
2019-04-25T10:38:40.819Z,16.80
2019-04-25T10:41:07.222Z,16.68
2019-04-25T10:43:34.208Z,17.01
2019-04-25T10:46:00.148Z,17.50
2019-04-25T10:48:26.008Z,17.55
2019-04-25T10:50:55.345Z,17.51
2019-04-25T10:53:19.745Z,17.88
2019-04-25T10:55:45.719Z,17.91
2019-04-25T10:58:11.618Z,17.84
2019-04-25T11:00:39.822Z,17.63
2019-04-25T11:03:24.191Z,17.61
2019-04-25T11:05:53.911Z,17.68
2019-04-25T11:08:19.629Z,17.72
2019-04-25T11:10:47.500Z,18.11
2019-04-25T11:13:14.381Z,18.54
2019-04-25T11:15:40.453Z,18.45
2019-04-25T11:18:06.305Z,18.39
2019-04-25T11:20:33.808Z,18.62
2019-04-25T11:22:59.834Z,18.39
2019-04-25T11:25:25.694Z,18.30
2019-04-25T11:27:52.423Z,18.25
2019-04-25T11:30:21.026Z,18.37
2019-04-25T11:32:47.924Z,18.05
2019-04-25T11:35:14.044Z,17.86
2019-04-25T11:37:40.093Z,17.79
2019-04-25T11:40:17.224Z,17.80
2019-04-25T11:42:44.903Z,17.76
2019-04-25T11:45:11.334Z,17.70
2019-04-25T11:47:37.351Z,17.61
2019-04-25T11:50:06.525Z,17.55
2019-04-25T11:52:33.602Z,17.53
2019-04-25T11:54:59.632Z,17.55
2019-04-25T11:57:25.480Z,17.56
2019-04-25T11:59:52.403Z,17.80
2019-04-25T12:02:19.697Z,17.93
2019-04-25T12:04:46.767Z,17.89
2019-04-25T12:07:14.319Z,17.81
2019-04-25T12:09:40.270Z,18.04
2019-04-25T12:12:06.159Z,18.23
2019-04-25T12:14:32.031Z,18.28
2019-04-25T12:16:57.905Z,18.17
2019-04-25T12:19:34.938Z,18.06
2019-04-25T12:21:51.519Z,17.89
2019-04-25T12:24:17.408Z,17.75
2019-04-25T12:26:45.120Z,17.75
2019-04-25T12:29:11.331Z,17.76
2019-04-25T12:31:37.261Z,17.74
2019-04-25T12:34:03.549Z,17.75
2019-04-25T12:36:29.593Z,17.70
2019-04-25T12:38:55.581Z,17.71
2019-04-25T12:41:21.398Z,17.71
2019-04-25T12:43:49.941Z,17.55
2019-04-25T12:46:17.734Z,17.55
2019-04-25T12:48:43.613Z,17.45
2019-04-25T12:51:10.364Z,17.30
2019-04-25T12:53:36.203Z,17.18
2019-04-25T12:56:02.159Z,16.79
2019-04-25T12:58:28.038Z,16.29
2019-04-25T13:00:58.467Z,15.90
2019-04-25T13:03:21.957Z,15.85
2019-04-25T13:05:47.828Z,15.73
2019-04-25T13:08:14.322Z,15.72
2019-04-25T13:10:40.363Z,15.55
2019-04-25T13:13:06.214Z,15.43
2019-04-25T13:15:33.440Z,15.22
2019-04-25T13:17:59.370Z,15.03
2019-04-25T13:20:25.198Z,15.02
2019-04-25T13:22:51.062Z,14.87
2019-04-25T13:25:18.829Z,14.95
2019-04-25T13:27:49.132Z,14.96
2019-04-25T13:30:17.081Z,15.09
2019-04-25T13:32:53.465Z,15.04
2019-04-25T13:35:24.018Z,15.09
2019-04-25T13:37:49.872Z,15.14
2019-04-25T13:40:17.173Z,15.07
2019-04-25T13:42:43.796Z,15.00
2019-04-25T13:45:10.155Z,15.23
2019-04-25T13:47:36.063Z,15.20
2019-04-25T13:50:04.205Z,15.20
2019-04-25T13:52:30.068Z,15.09
2019-04-25T13:54:55.922Z,15.11
2019-04-25T13:57:21.880Z,15.21
2019-04-25T13:59:47.756Z,15.10
2019-04-25T14:02:14.159Z,15.10
2019-04-25T14:04:40.092Z,15.02
2019-04-25T14:07:06.238Z,15.09
2019-04-25T14:09:34.680Z,15.08
2019-04-25T14:12:00.778Z,15.04
2019-04-25T14:14:27.026Z,15.22
2019-04-25T14:17:11.620Z,15.16
2019-04-25T14:19:39.372Z,15.20
2019-04-25T14:22:06.029Z,15.21
2019-04-25T14:24:32.329Z,15.16
2019-04-25T14:26:58.649Z,15.34
2019-04-25T14:29:24.510Z,15.32
2019-04-25T14:31:50.390Z,15.04
2019-04-25T14:34:16.277Z,15.26
2019-04-25T14:36:42.144Z,15.20
2019-04-25T14:39:07.997Z,15.08
2019-04-25T14:41:33.845Z,15.12
2019-04-25T14:43:59.715Z,15.08
2019-04-25T14:46:26.562Z,15.16
2019-04-25T14:48:52.862Z,14.99
2019-04-25T14:51:18.789Z,14.98
2019-04-25T14:53:44.661Z,15.09
2019-04-25T14:56:30.284Z,14.86
2019-04-25T14:58:56.250Z,15.00
2019-04-25T15:01:24.016Z,15.15
2019-04-25T15:03:49.985Z,15.13
2019-04-25T15:06:15.899Z,15.21
2019-04-25T15:08:41.758Z,15.22
2019-04-25T15:11:07.630Z,14.95
2019-04-25T15:13:33.492Z,14.87
2019-04-25T15:15:59.361Z,15.01
2019-04-25T15:18:25.353Z,15.17
2019-04-25T15:20:51.217Z,15.07
2019-04-25T15:23:17.073Z,15.11
2019-04-25T15:25:42.940Z,15.29
2019-04-25T15:28:08.840Z,15.23
2019-04-25T15:30:36.497Z,15.31
2019-04-25T15:33:02.777Z,15.34
2019-04-25T15:35:36.333Z,15.51
2019-04-25T15:38:04.224Z,15.63
2019-04-25T15:40:31.984Z,15.63
2019-04-25T15:43:05.522Z,15.68
2019-04-25T15:45:36.550Z,15.42
2019-04-25T15:48:03.795Z,15.64
2019-04-25T15:50:29.886Z,15.41
2019-04-25T15:52:55.807Z,15.68
2019-04-25T15:55:21.690Z,15.66
2019-04-25T15:57:47.543Z,15.66
2019-04-25T16:00:18.833Z,15.64
2019-04-25T16:02:44.769Z,15.66
2019-04-25T16:05:10.814Z,15.61
2019-04-25T16:07:37.696Z,15.69
2019-04-25T16:10:05.934Z,15.72
2019-04-25T16:12:31.796Z,15.72
2019-04-25T16:14:57.666Z,15.54
2019-04-25T16:17:23.512Z,15.62
2019-04-25T16:19:58.251Z,15.70
2019-04-25T16:22:24.102Z,15.73
2019-04-25T16:24:49.960Z,15.52
2019-04-25T16:27:16.725Z,15.61
2019-04-25T16:29:42.578Z,15.58
2019-04-25T16:32:19.983Z,15.44
2019-04-25T16:34:38.109Z,15.57
2019-04-25T16:37:04.819Z,15.59
2019-04-25T16:39:33.079Z,15.60
2019-04-25T16:41:58.968Z,15.45
2019-04-25T16:44:24.961Z,15.17
2019-04-25T16:46:50.826Z,15.34
2019-04-25T16:49:16.814Z,15.35
2019-04-25T16:51:42.769Z,15.31
2019-04-25T16:54:08.635Z,15.42
2019-04-25T16:56:34.580Z,15.43
2019-04-25T16:59:00.751Z,15.23
2019-04-25T17:01:26.775Z,15.42
2019-04-25T17:03:52.627Z,15.30
2019-04-25T17:06:19.101Z,15.25
2019-04-25T17:08:44.951Z,15.42
2019-04-25T17:11:11.104Z,15.44
2019-04-25T17:13:38.930Z,15.44
2019-04-25T17:16:06.897Z,15.42
2019-04-25T17:18:53.310Z,15.01
2019-04-25T17:21:19.458Z,14.87
2019-04-25T17:23:45.300Z,15.04
2019-04-25T17:26:11.769Z,15.16
2019-04-25T17:28:39.536Z,15.05
2019-04-25T17:31:16.574Z,15.09
2019-04-25T17:33:59.422Z,15.03
2019-04-25T17:36:32.123Z,14.96
2019-04-25T17:38:59.753Z,15.01
2019-04-25T17:41:25.615Z,15.06
2019-04-25T17:43:51.487Z,15.11
2019-04-25T17:46:19.269Z,14.97
2019-04-25T17:48:45.138Z,15.06
2019-04-25T17:51:11.009Z,14.99
2019-04-25T17:53:36.869Z,14.60
2019-04-25T17:56:02.751Z,14.60
2019-04-25T17:58:28.664Z,14.64
2019-04-25T18:00:54.493Z,14.71
2019-04-25T18:03:20.362Z,14.81
2019-04-25T18:05:46.324Z,14.82
2019-04-25T18:08:12.288Z,14.56
2019-04-25T18:10:38.245Z,14.79
2019-04-25T18:13:04.906Z,14.85
2019-04-25T18:15:38.506Z,14.54
2019-04-25T18:18:06.369Z,14.71
2019-04-25T18:20:35.207Z,14.71
2019-04-25T18:23:19.776Z,14.59
2019-04-25T18:26:04.157Z,14.66
2019-04-25T18:28:35.485Z,14.66
2019-04-25T18:31:01.759Z,14.75
2019-04-25T18:33:28.017Z,14.56
2019-04-25T18:35:55.905Z,14.42
2019-04-25T18:38:32.243Z,14.47
2019-04-25T18:41:00.022Z,14.57
2019-04-25T18:43:27.780Z,14.44
2019-04-25T18:45:55.542Z,14.07
2019-04-25T18:48:21.388Z,14.36
2019-04-25T18:50:47.237Z,14.50
2019-04-25T18:53:26.899Z,14.53
2019-04-25T18:55:54.660Z,14.58
2019-04-25T18:58:41.689Z,14.49
2019-04-25T19:01:09.751Z,14.25
2019-04-25T19:03:49.301Z,13.80
2019-04-25T19:06:19.677Z,13.75
2019-04-25T19:08:45.758Z,13.47
2019-04-25T19:11:11.723Z,13.46
2019-04-25T19:13:38.792Z,13.57
2019-04-25T19:16:05.864Z,13.74
2019-04-25T19:18:31.931Z,13.84
2019-04-25T19:20:57.803Z,14.01
2019-04-25T19:23:23.830Z,13.89
2019-04-25T19:25:49.810Z,13.86
2019-04-25T19:28:15.735Z,14.03
2019-04-25T19:30:41.709Z,14.04
2019-04-25T19:33:07.737Z,13.83
2019-04-25T19:35:33.724Z,13.67
2019-04-25T19:38:01.475Z,13.52
2019-04-25T19:40:42.157Z,13.39
2019-04-25T19:43:22.157Z,13.44
2019-04-25T19:45:49.001Z,13.14
2019-04-25T19:48:14.976Z,13.07
2019-04-25T19:50:41.662Z,13.36
2019-04-25T19:53:07.928Z,13.07
2019-04-25T19:55:33.786Z,13.35
2019-04-25T19:57:59.638Z,13.09
2019-04-25T20:00:25.607Z,13.30
2019-04-25T20:03:02.452Z,12.95
2019-04-25T20:05:32.764Z,13.23
2019-04-25T20:08:00.530Z,13.42
2019-04-25T20:10:29.510Z,13.33
2019-04-25T20:12:55.368Z,13.18
2019-04-25T20:15:22.092Z,13.34
2019-04-25T20:17:47.963Z,13.30
2019-04-25T20:20:14.031Z,13.15
2019-04-25T20:22:39.906Z,12.93
2019-04-25T20:25:06.165Z,13.23
2019-04-25T20:27:32.028Z,13.22
2019-04-25T20:29:58.149Z,13.20
2019-04-25T20:32:24.055Z,13.18
2019-04-25T20:34:50.848Z,13.19
2019-04-25T20:37:16.897Z,13.20
2019-04-25T20:39:42.767Z,13.10
2019-04-25T20:42:08.628Z,13.06
2019-04-25T20:44:36.655Z,13.10
2019-04-25T20:47:02.573Z,12.98
2019-04-25T20:49:28.451Z,13.05
2019-04-25T20:51:54.697Z,12.97
2019-04-25T20:54:20.693Z,12.99
2019-04-25T20:56:46.889Z,12.98
2019-04-25T20:59:13.820Z,12.92
2019-04-25T21:01:39.693Z,12.91
2019-04-25T21:04:13.338Z,12.83
2019-04-25T21:06:37.190Z,12.84
2019-04-25T21:09:05.092Z,12.86
2019-04-25T21:11:31.062Z,12.82
2019-04-25T21:14:01.528Z,12.90
2019-04-25T21:16:42.166Z,12.89
2019-04-25T21:19:09.968Z,12.88
2019-04-25T21:21:35.937Z,12.82
2019-04-25T21:24:01.811Z,12.85
2019-04-25T21:26:27.770Z,12.81
2019-04-25T21:28:54.340Z,12.67
2019-04-25T21:31:20.295Z,12.76
2019-04-25T21:33:46.149Z,12.74
2019-04-25T21:36:12.214Z,12.73
2019-04-25T21:38:38.481Z,12.69
2019-04-25T21:41:06.241Z,12.73
2019-04-25T21:43:36.977Z,12.58
2019-04-25T21:46:04.070Z,12.59
2019-04-25T21:48:30.211Z,12.60
2019-04-25T21:50:56.978Z,12.64
2019-04-25T21:53:22.921Z,12.68
2019-04-25T21:55:49.079Z,12.68
2019-04-25T21:58:15.255Z,12.64
2019-04-25T22:00:43.426Z,12.62
2019-04-25T22:03:09.588Z,12.55
2019-04-25T22:05:36.138Z,12.57
2019-04-25T22:08:02.617Z,12.59
2019-04-25T22:10:29.055Z,12.49
2019-04-25T22:12:55.013Z,12.55
2019-04-25T22:15:22.665Z,12.52
2019-04-25T22:17:48.561Z,12.55
2019-04-25T22:20:14.523Z,12.56
2019-04-25T22:22:40.582Z,12.59
2019-04-25T22:25:06.793Z,12.38
2019-04-25T22:27:36.697Z,12.45
2019-04-25T22:30:07.701Z,12.48
2019-04-25T22:32:35.665Z,12.43
2019-04-25T22:35:07.666Z,12.38
2019-04-25T22:37:33.790Z,12.38
2019-04-25T22:40:01.011Z,12.29
2019-04-25T22:42:27.197Z,12.36
2019-04-25T22:44:53.153Z,12.33
2019-04-25T22:47:19.859Z,12.36
2019-04-25T22:49:45.735Z,12.30
2019-04-25T22:52:11.702Z,12.31
2019-04-25T22:54:37.679Z,12.26
2019-04-25T22:57:04.268Z,12.26
2019-04-25T22:59:30.384Z,12.20
2019-04-25T23:02:15.350Z,12.16
2019-04-25T23:05:09.294Z,12.12
2019-04-25T23:07:27.834Z,12.08
2019-04-25T23:09:53.784Z,12.09
2019-04-25T23:12:20.148Z,12.07
2019-04-25T23:14:46.021Z,12.07
2019-04-25T23:17:11.913Z,11.97
2019-04-25T23:19:37.778Z,11.99
2019-04-25T23:22:04.618Z,11.96
2019-04-25T23:24:33.316Z,11.95
2019-04-25T23:27:16.549Z,11.84
2019-04-25T23:29:42.414Z,11.77
2019-04-25T23:32:08.870Z,11.77
2019-04-25T23:34:34.756Z,11.77
2019-04-25T23:37:00.638Z,11.78
2019-04-25T23:39:26.602Z,11.82
2019-04-25T23:41:52.496Z,11.71
2019-04-25T23:44:18.348Z,11.73
2019-04-25T23:46:44.498Z,11.68
2019-04-25T23:49:10.625Z,11.64
2019-04-25T23:51:36.532Z,11.65
2019-04-25T23:54:02.582Z,11.60
2019-04-25T23:56:28.459Z,11.58
2019-04-25T23:58:54.512Z,11.50
